Time;durP1;ratioP1;P1;durP2;ratioP2;P2;SDS_P1;SDS_P2;PMS_P1;PMS_P2;Temp;Humidity;BMP_temperature;BMP_pressure;BME280_temperature;BME280_humidity;BME280_pressure;Samples;Min_cycle;Max_cycle;Signal;HPM_P1;HPM_P2
2021/04/05 00:00:21;;;;;;;10.85;6.22;;;;;;;1.93;100.00;95886.16;1027642;28;20130;-60
2021/04/05 00:00:51;;;;;;;14.35;6.45;;;;;;;1.93;100.00;95886.16;1015888;29;20020;-59
2021/04/05 00:01:22;;;;;;;9.18;5.40;;;;;;;1.88;100.00;95889.19;1031738;28;20527;-60
2021/04/05 00:01:53;;;;;;;10.85;6.00;;;;;;;1.88;100.00;95889.19;1027803;28;20541;-59
2021/04/05 00:02:24;;;;;;;10.00;5.88;;;;;;;1.89;100.00;95882.97;1019759;29;20027;-60
2021/04/05 00:02:55;;;;;;;13.23;5.53;;;;;;;1.86;100.00;95879.78;1023694;29;20389;-60
2021/04/05 00:03:26;;;;;;;11.30;5.70;;;;;;;1.85;100.00;95883.38;1027630;28;20019;-59
2021/04/05 00:03:57;;;;;;;8.20;5.55;;;;;;;1.82;100.00;95878.38;1019658;29;20082;-59
2021/04/05 00:04:28;;;;;;;8.32;5.60;;;;;;;1.83;100.00;95874.78;1019700;29;20028;-60
2021/04/05 00:04:58;;;;;;;9.88;5.93;;;;;;;1.84;100.00;95871.22;1019872;29;20106;-60
2021/04/05 00:05:31;;;;;;;11.65;6.18;;;;;;;1.84;100.00;95874.66;1024070;28;20031;-60
2021/04/05 00:06:02;;;;;;;9.60;5.38;;;;;;;1.84;100.00;95872.03;1027798;28;20014;-59
2021/04/05 00:06:32;;;;;;;10.63;5.78;;;;;;;1.87;100.00;95870.97;1023632;29;20023;-59
2021/04/05 00:07:04;;;;;;;11.30;5.93;;;;;;;1.85;100.00;95867.66;1023731;29;20023;-60
2021/04/05 00:07:34;;;;;;;11.27;5.75;;;;;;;1.89;100.00;95869.06;1031719;28;20029;-59
2021/04/05 00:08:05;;;;;;;13.32;6.55;;;;;;;1.85;100.00;95867.66;1023828;28;20050;-58
2021/04/05 00:08:36;;;;;;;9.88;6.15;;;;;;;1.86;100.00;95869.31;1031620;28;20032;-60
2021/04/05 00:09:07;;;;;;;9.27;5.82;;;;;;;1.78;100.00;95856.03;1023762;28;20091;-60
2021/04/05 00:09:39;;;;;;;11.70;5.93;;;;;;;1.81;100.00;95861.84;1019801;29;20023;-61
2021/04/05 00:10:12;;;;;;;11.18;6.18;;;;;;;1.86;100.00;95864.06;1015988;29;20067;-59
2021/04/05 00:10:45;;;;;;;13.43;6.10;;;;;;;1.85;100.00;95862.41;1015764;29;20105;-60
2021/04/05 00:11:17;;;;;;;11.50;6.32;;;;;;;1.83;100.00;95869.53;1011914;29;20067;-60
2021/04/05 00:11:48;;;;;;;10.80;5.28;;;;;;;1.83;100.00;95866.91;1023733;29;20090;-60
2021/04/05 00:12:18;;;;;;;20.95;6.47;;;;;;;1.76;100.00;95853.53;1019702;29;20098;-59
2021/04/05 00:12:50;;;;;;;11.35;6.00;;;;;;;1.83;100.00;95865.16;1019611;29;20473;-59
2021/04/05 00:13:24;;;;;;;13.60;5.93;;;;;;;1.79;100.00;95862.91;1027728;28;20019;-59
2021/04/05 00:13:55;;;;;;;12.38;6.50;;;;;;;1.78;100.00;95862.06;1035654;28;20579;-60
2021/04/05 00:14:26;;;;;;;11.48;5.55;;;;;;;1.78;100.00;95862.06;1023696;28;20020;-59
2021/04/05 00:14:57;;;;;;;13.20;6.57;;;;;;;1.74;100.00;95865.88;1015700;29;20115;-59
2021/04/05 00:15:28;;;;;;;10.52;5.97;;;;;;;1.70;100.00;95862.69;1019728;29;20032;-59
2021/04/05 00:15:59;;;;;;;12.15;6.00;;;;;;;1.70;100.00;95872.31;1023710;29;20027;-59
2021/04/05 00:16:30;;;;;;;11.52;6.43;;;;;;;1.64;100.00;95857.94;1023681;29;20043;-59
2021/04/05 00:17:01;;;;;;;10.57;6.55;;;;;;;1.57;100.00;95846.31;1019777;29;20498;-59
2021/04/05 00:17:32;;;;;;;10.40;5.95;;;;;;;1.67;100.00;95860.34;1023716;29;20559;-60
2021/04/05 00:18:03;;;;;;;11.48;6.22;;;;;;;1.65;100.00;95864.84;1023775;29;20030;-60
2021/04/05 00:18:34;;;;;;;9.40;5.75;;;;;;;1.66;100.00;95861.28;1019738;29;20062;-60
2021/04/05 00:19:04;;;;;;;11.40;5.82;;;;;;;1.63;100.00;95855.44;1019519;29;20039;-60
2021/04/05 00:19:39;;;;;;;10.57;5.78;;;;;;;1.60;100.00;95859.16;1019722;28;20023;-60
2021/04/05 00:20:13;;;;;;;12.32;6.13;;;;;;;1.60;100.00;95855.69;1019887;28;20536;-59
2021/04/05 00:20:51;;;;;;;11.77;6.20;;;;;;;1.60;100.00;95861.78;1019828;29;20035;-60
2021/04/05 00:21:22;;;;;;;11.27;5.82;;;;;;;1.63;100.00;95855.44;1019683;29;20035;-59
2021/04/05 00:21:53;;;;;;;9.90;5.88;;;;;;;1.61;100.00;95854.75;1015821;29;20487;-60
2021/04/05 00:22:24;;;;;;;11.90;6.90;;;;;;;1.59;100.00;95857.50;1015775;29;20035;-60
2021/04/05 00:22:55;;;;;;;11.18;6.43;;;;;;;1.57;100.00;95854.16;1019623;29;20059;-59
2021/04/05 00:23:26;;;;;;;11.27;6.28;;;;;;;1.55;100.00;95850.84;1027655;28;20042;-60
2021/04/05 00:23:58;;;;;;;9.75;6.22;;;;;;;1.56;100.00;95856.91;1023570;29;20509;-59
2021/04/05 00:24:28;;;;;;;10.05;6.20;;;;;;;1.50;100.00;95853.00;1019726;29;20024;-60
2021/04/05 00:24:59;;;;;;;11.32;5.75;;;;;;;1.49;100.00;95849.53;1015833;29;20024;-60
2021/04/05 00:25:30;;;;;;;8.93;5.18;;;;;;;1.52;100.00;95856.31;1019747;29;20020;-59
2021/04/05 00:26:02;;;;;;;10.30;5.72;;;;;;;1.56;100.00;95857.72;1015776;29;20024;-60
2021/04/05 00:26:33;;;;;;;12.32;6.50;;;;;;;1.50;100.00;95853.00;1012022;29;20080;-59
2021/04/05 00:27:05;;;;;;;10.50;6.13;;;;;;;1.54;100.00;95849.16;1011944;29;20555;-59
2021/04/05 00:27:37;;;;;;;15.18;6.63;;;;;;;1.50;100.00;95843.34;1019760;29;20019;-59
2021/04/05 00:28:07;;;;;;;10.18;5.63;;;;;;;1.52;100.00;95842.41;1016858;29;20051;-59
2021/04/05 00:28:38;;;;;;;10.75;5.85;;;;;;;1.49;100.00;95836.44;1023638;29;20090;-60
2021/04/05 00:29:09;;;;;;;12.55;5.47;;;;;;;1.47;100.00;95838.34;1031666;28;20057;-60
2021/04/05 00:29:40;;;;;;;10.57;6.03;;;;;;;1.46;100.00;95834.09;1019600;29;20414;-59
2021/04/05 00:30:16;;;;;;;12.40;6.60;;;;;;;1.43;100.00;95833.47;1023686;29;20027;-59
2021/04/05 00:30:48;;;;;;;12.48;6.38;;;;;;;1.44;100.00;95837.78;1027680;28;20062;-60
2021/04/05 00:31:19;;;;;;;9.25;5.65;;;;;;;1.40;100.00;95825.91;1015693;29;20492;-60
2021/04/05 00:31:50;;;;;;;11.20;5.90;;;;;;;1.43;100.00;95830.88;1023564;28;20019;-60
2021/04/05 00:32:20;;;;;;;10.15;5.95;;;;;;;1.43;100.00;95841.34;1019608;28;20023;-59
2021/04/05 00:32:53;;;;;;;12.07;6.15;;;;;;;1.38;100.00;95833.06;1015783;29;20034;-60
2021/04/05 00:33:24;;;;;;;10.98;5.50;;;;;;;1.40;100.00;95837.19;1023561;29;20034;-60
2021/04/05 00:33:54;;;;;;;9.82;5.25;;;;;;;1.36;100.00;95838.41;1023560;29;20428;-59
2021/04/05 00:34:25;;;;;;;13.73;5.93;;;;;;;1.36;100.00;95838.41;1019734;29;20481;-59
2021/04/05 00:34:56;;;;;;;9.73;5.85;;;;;;;1.36;100.00;95840.16;1015891;29;20028;-60
2021/04/05 00:35:28;;;;;;;10.68;6.05;;;;;;;1.30;100.00;95837.06;1011826;29;20487;-59
2021/04/05 00:35:59;;;;;;;10.25;6.20;;;;;;;1.33;100.00;95840.44;1011979;29;20067;-59
2021/04/05 00:36:29;;;;;;;13.82;6.60;;;;;;;1.28;100.00;95827.69;1019638;29;20087;-59
2021/04/05 00:37:00;;;;;;;11.02;6.43;;;;;;;1.27;100.00;95831.25;1019762;29;20416;-60
2021/04/05 00:37:31;;;;;;;10.48;5.72;;;;;;;1.25;100.00;95828.75;1019734;29;20024;-60
2021/04/05 00:38:05;;;;;;;12.20;6.35;;;;;;;1.25;100.00;95833.16;1019589;29;20155;-60
2021/04/05 00:38:36;;;;;;;11.43;6.10;;;;;;;1.22;100.00;95834.25;1023610;29;20170;-60
2021/04/05 00:39:06;;;;;;;10.00;6.10;;;;;;;1.22;100.00;95831.66;1019678;29;20131;-59
2021/04/05 00:39:37;;;;;;;13.30;6.25;;;;;;;1.21;100.00;95832.59;1019705;29;20070;-59
2021/04/05 00:40:09;;;;;;;10.20;6.60;;;;;;;1.22;100.00;95831.66;1015688;29;20028;-59
2021/04/05 00:40:43;;;;;;;9.50;6.07;;;;;;;1.20;100.00;95825.72;1019659;29;20031;-59
2021/04/05 00:41:15;;;;;;;9.65;5.85;;;;;;;1.21;100.00;95829.16;1019820;29;20512;-60
2021/04/05 00:41:45;;;;;;;13.55;6.43;;;;;;;1.20;100.00;95828.31;1016658;29;20028;-59
2021/04/05 00:42:18;;;;;;;10.77;6.32;;;;;;;1.15;100.00;95821.78;1016483;29;20039;-60
2021/04/05 00:42:49;;;;;;;10.35;6.03;;;;;;;1.12;100.00;95830.69;1019595;29;20023;-59
2021/04/05 00:43:21;;;;;;;12.20;6.00;;;;;;;1.11;100.00;95831.66;1019654;28;20446;-61
2021/04/05 00:43:52;;;;;;;10.15;5.60;;;;;;;1.15;100.00;95833.09;1020971;28;20023;-60
2021/04/05 00:44:23;;;;;;;11.32;5.32;;;;;;;1.18;100.00;95838.06;1019664;29;20027;-60
2021/04/05 00:44:54;;;;;;;13.23;6.20;;;;;;;1.20;100.00;95837.94;1023578;29;20023;-60
2021/04/05 00:45:25;;;;;;;12.32;6.10;;;;;;;1.19;100.00;95826.66;1023690;29;20023;-60
2021/04/05 00:45:56;;;;;;;10.55;6.03;;;;;;;1.20;100.00;95832.69;1019657;28;20069;-59
2021/04/05 00:46:26;;;;;;;9.73;6.10;;;;;;;1.21;100.00;95834.38;1027677;28;20069;-60
2021/04/05 00:46:57;;;;;;;10.98;6.35;;;;;;;1.18;100.00;95835.44;1023665;29;20048;-59
2021/04/05 00:47:28;;;;;;;10.63;6.10;;;;;;;1.20;100.00;95836.16;1023630;29;20033;-60
2021/04/05 00:47:59;;;;;;;9.90;5.63;;;;;;;1.20;100.00;95830.09;1011913;29;20024;-59
2021/04/05 00:48:29;;;;;;;10.77;5.95;;;;;;;1.20;100.00;95830.09;1015702;29;20027;-58
2021/04/05 00:49:01;;;;;;;15.35;6.57;;;;;;;1.19;100.00;95829.25;1011912;29;20016;-60
2021/04/05 00:49:32;;;;;;;16.40;6.60;;;;;;;1.21;100.00;95826.53;1019680;29;20437;-60
2021/04/05 00:50:10;;;;;;;11.05;5.82;;;;;;;1.21;100.00;95829.97;1019605;29;20051;-61
2021/04/05 00:50:45;;;;;;;11.63;6.38;;;;;;;1.17;100.00;95828.56;1011918;29;20028;-60
2021/04/05 00:51:18;;;;;;;11.45;5.68;;;;;;;1.15;100.00;95827.84;1015792;29;20032;-60
2021/04/05 00:51:49;;;;;;;9.95;6.20;;;;;;;1.15;100.00;95830.47;1015734;29;20439;-60
2021/04/05 00:52:20;;;;;;;15.23;6.13;;;;;;;1.16;100.00;95834.72;1015647;29;20036;-59
2021/04/05 00:52:52;;;;;;;11.57;5.93;;;;;;;1.15;100.00;95825.25;1015659;29;20024;-59
2021/04/05 00:53:25;;;;;;;10.68;5.63;;;;;;;1.12;100.00;95812.41;1023707;29;20031;-59
2021/04/05 00:53:56;;;;;;;12.38;6.93;;;;;;;1.17;100.00;95825.94;1027455;28;20026;-59
2021/04/05 00:54:27;;;;;;;12.13;6.15;;;;;;;1.19;100.00;95815.38;1019647;29;20031;-59
2021/04/05 00:54:58;;;;;;;12.07;6.05;;;;;;;1.19;100.00;95823.22;1015744;29;20421;-60
2021/04/05 00:55:29;;;;;;;11.65;6.03;;;;;;;1.20;100.00;95825.72;1015809;29;20402;-59
2021/04/05 00:56:00;;;;;;;9.55;6.18;;;;;;;1.17;100.00;95827.69;1019716;29;20051;-59
2021/04/05 00:56:31;;;;;;;11.55;5.75;;;;;;;1.15;100.00;95820.00;1023896;28;20106;-59
2021/04/05 00:57:02;;;;;;;13.13;6.57;;;;;;;1.13;100.00;95829.72;1017767;29;20024;-61
2021/04/05 00:57:35;;;;;;;9.68;6.18;;;;;;;1.15;100.00;95827.00;1022089;28;20039;-60
2021/04/05 00:58:05;;;;;;;10.00;5.95;;;;;;;1.14;100.00;95828.78;1025941;29;20023;-60
2021/04/05 00:58:36;;;;;;;15.38;7.07;;;;;;;1.14;100.00;95826.19;1025674;28;20100;-60
2021/04/05 00:59:07;;;;;;;12.55;6.07;;;;;;;1.16;100.00;95824.28;1022053;29;20079;-60
2021/04/05 00:59:37;;;;;;;11.13;6.25;;;;;;;1.13;100.00;95835.81;1022792;29;20099;-60
2021/04/05 01:00:28;;;;;;;12.82;6.30;;;;;;;1.10;100.00;95825.59;1022787;28;20020;-60
2021/04/05 01:01:01;;;;;;;9.23;5.60;;;;;;;1.12;100.00;95820.25;1030095;28;20108;-60
2021/04/05 01:01:32;;;;;;;10.90;6.03;;;;;;;1.13;100.00;95827.13;1025347;29;20039;-62
2021/04/05 01:02:03;;;;;;;11.95;5.75;;;;;;;1.07;100.00;95817.97;1019949;29;20028;-60
2021/04/05 01:02:35;;;;;;;9.82;6.10;;;;;;;1.05;100.00;95819.06;1020011;29;20063;-59
2021/04/05 01:03:06;;;;;;;12.48;5.75;;;;;;;1.04;100.00;95822.63;1023558;29;20027;-60
2021/04/05 01:03:39;;;;;;;11.05;5.95;;;;;;;1.02;100.00;95822.75;1023453;28;20015;-59
2021/04/05 01:04:10;;;;;;;9.85;5.75;;;;;;;1.05;100.00;95817.28;1011836;29;20032;-60
2021/04/05 01:04:41;;;;;;;13.30;6.40;;;;;;;1.05;100.00;95819.06;1019571;29;20031;-60
2021/04/05 01:05:13;;;;;;;9.25;6.07;;;;;;;1.01;100.00;95815.00;1011920;29;20025;-60
2021/04/05 01:05:46;;;;;;;10.43;6.25;;;;;;;0.97;100.00;95813.59;1015765;29;20414;-60
2021/04/05 01:06:20;;;;;;;15.30;6.68;;;;;;;0.99;100.00;95815.13;1027818;28;20035;-61
2021/04/05 01:06:50;;;;;;;12.70;5.82;;;;;;;1.00;100.00;95808.97;1023476;29;20280;-59
2021/04/05 01:07:21;;;;;;;11.77;6.65;;;;;;;1.02;100.00;95814.06;1023471;28;20027;-59
2021/04/05 01:07:53;;;;;;;10.05;6.20;;;;;;;1.00;100.00;95811.56;1019578;29;20027;-60
2021/04/05 01:08:24;;;;;;;8.68;5.68;;;;;;;0.97;100.00;95806.56;1027610;28;20022;-60
2021/04/05 01:08:55;;;;;;;15.23;7.03;;;;;;;0.98;100.00;95810.03;1031501;28;20045;-60
2021/04/05 01:09:26;;;;;;;11.40;6.82;;;;;;;0.96;100.00;95806.69;1023570;29;20225;-60
2021/04/05 01:09:56;;;;;;;10.70;6.30;;;;;;;0.92;100.00;95814.81;1023506;29;20035;-59
2021/04/05 01:10:27;;;;;;;12.80;5.88;;;;;;;0.98;100.00;95799.59;1023626;29;20086;-60
2021/04/05 01:10:58;;;;;;;12.15;6.03;;;;;;;0.99;100.00;95796.81;1019564;29;20030;-61
2021/04/05 01:11:29;;;;;;;10.45;6.28;;;;;;;0.96;100.00;95802.31;1023516;29;20058;-59
2021/04/05 01:12:00;;;;;;;12.25;5.82;;;;;;;0.97;100.00;95798.75;1019624;29;20115;-62
2021/04/05 01:12:31;;;;;;;9.18;6.00;;;;;;;0.98;100.00;95794.34;1019638;28;20015;-59
2021/04/05 01:13:01;;;;;;;13.18;6.50;;;;;;;0.96;100.00;95791.88;1019573;29;20020;-60
2021/04/05 01:13:32;;;;;;;11.55;6.05;;;;;;;0.96;100.00;95784.03;1015492;29;20514;-59
2021/04/05 01:14:04;;;;;;;11.73;6.28;;;;;;;0.97;100.00;95784.84;1027646;28;20026;-59
2021/04/05 01:14:34;;;;;;;11.10;5.90;;;;;;;0.93;100.00;95782.47;1027602;28;20438;-58
2021/04/05 01:15:08;;;;;;;10.05;5.53;;;;;;;0.96;100.00;95781.41;1023559;29;20026;-59
2021/04/05 01:15:39;;;;;;;11.80;5.72;;;;;;;0.92;100.00;95782.56;1019540;29;20028;-61
2021/04/05 01:16:10;;;;;;;10.43;5.95;;;;;;;0.96;100.00;95775.31;1023595;29;20444;-61
2021/04/05 01:16:41;;;;;;;12.75;6.30;;;;;;;0.93;100.00;95769.38;1015644;29;20036;-62
2021/04/05 01:17:12;;;;;;;9.82;5.60;;;;;;;0.81;100.00;95761.69;1023424;29;20027;-60
2021/04/05 01:17:42;;;;;;;10.73;6.07;;;;;;;0.92;100.00;95783.44;1015686;29;20028;-62
2021/04/05 01:18:14;;;;;;;13.05;6.60;;;;;;;0.89;100.00;95775.00;1019658;29;20429;-61
2021/04/05 01:18:46;;;;;;;10.88;5.93;;;;;;;0.90;100.00;95777.47;1019641;29;20024;-62
2021/04/05 01:19:16;;;;;;;14.18;6.57;;;;;;;0.88;100.00;95779.38;1019624;28;20393;-60
2021/04/05 01:19:47;;;;;;;10.88;5.68;;;;;;;0.90;100.00;95774.84;1023553;28;20200;-61
2021/04/05 01:20:18;;;;;;;11.38;6.05;;;;;;;0.90;100.00;95767.00;1023519;28;20030;-61
2021/04/05 01:20:49;;;;;;;14.05;6.18;;;;;;;0.90;100.00;95782.69;1019558;29;20106;-60
2021/04/05 01:21:20;;;;;;;12.45;6.20;;;;;;;0.90;100.00;95772.25;1019519;29;20514;-62
2021/04/05 01:21:51;;;;;;;10.73;6.57;;;;;;;0.91;100.00;95768.69;1023502;29;20114;-60
2021/04/05 01:22:22;;;;;;;11.82;6.20;;;;;;;0.86;100.00;95773.44;1027591;28;20065;-60
2021/04/05 01:22:53;;;;;;;11.98;5.97;;;;;;;0.86;100.00;95772.63;1023474;29;20059;-61
2021/04/05 01:23:24;;;;;;;10.77;6.20;;;;;;;0.87;100.00;95772.50;1019442;29;20030;-61
2021/04/05 01:23:55;;;;;;;10.95;6.20;;;;;;;0.89;100.00;95775.00;1023303;29;20366;-62
2021/04/05 01:24:27;;;;;;;11.70;6.03;;;;;;;0.92;100.00;95772.13;1027499;28;20023;-61
2021/04/05 01:24:57;;;;;;;11.75;5.70;;;;;;;0.90;100.00;95777.47;1027666;28;20432;-60
2021/04/05 01:25:28;;;;;;;11.45;6.68;;;;;;;0.86;100.00;95772.63;1023604;28;20030;-60
2021/04/05 01:25:59;;;;;;;11.35;5.68;;;;;;;0.84;100.00;95771.91;1015703;29;20065;-62
2021/04/05 01:26:33;;;;;;;9.50;6.00;;;;;;;0.85;100.00;95779.59;1019599;29;20031;-59
2021/04/05 01:27:05;;;;;;;9.73;5.90;;;;;;;0.81;100.00;95772.97;1015842;29;20529;-61
2021/04/05 01:27:36;;;;;;;11.55;5.72;;;;;;;0.86;100.00;95776.06;1011661;29;20115;-61
2021/04/05 01:28:07;;;;;;;12.52;6.43;;;;;;;0.77;100.00;95760.25;1015727;29;20391;-61
2021/04/05 01:28:38;;;;;;;9.82;5.70;;;;;;;0.86;100.00;95781.28;1023658;29;20050;-60
2021/04/05 01:29:09;;;;;;;11.10;6.65;;;;;;;0.87;100.00;95785.56;1023621;28;20514;-60
2021/04/05 01:29:40;;;;;;;12.27;6.35;;;;;;;0.88;100.00;95784.59;1015641;29;20090;-60
2021/04/05 01:31:02;;;;;;;14.93;5.68;;;;;;;0.90;100.00;95781.88;1027777;28;20413;-60
2021/04/05 01:31:33;;;;;;;10.05;6.13;;;;;;;0.90;100.00;95776.66;1023252;29;20216;-60
2021/04/05 01:32:05;;;;;;;9.23;5.25;;;;;;;0.89;100.00;95775.00;1021322;29;20023;-61
2021/04/05 01:32:35;;;;;;;12.32;5.80;;;;;;;0.91;100.00;95773.09;1016400;29;20058;-60
2021/04/05 01:33:11;;;;;;;10.50;5.25;;;;;;;0.91;100.00;95775.72;1020896;29;20076;-62
2021/04/05 01:33:42;;;;;;;12.48;5.60;;;;;;;0.89;100.00;95772.38;1028192;28;20030;-60
2021/04/05 01:34:14;;;;;;;10.98;5.95;;;;;;;0.91;100.00;95771.31;1024232;29;20016;-60
2021/04/05 01:34:45;;;;;;;11.25;5.90;;;;;;;0.88;100.00;95775.94;1024302;29;20027;-61
2021/04/05 01:35:16;;;;;;;9.35;5.43;;;;;;;0.90;100.00;95779.25;1024317;28;20393;-62
2021/04/05 01:35:49;;;;;;;10.45;6.18;;;;;;;0.90;100.00;95774.03;1020330;29;20118;-61
2021/04/05 01:36:20;;;;;;;14.10;5.68;;;;;;;0.91;100.00;95779.16;1028319;28;20424;-60
2021/04/05 01:36:51;;;;;;;13.20;5.72;;;;;;;0.91;100.00;95776.53;1016464;29;20023;-61
2021/04/05 01:37:21;;;;;;;15.80;6.90;;;;;;;0.84;100.00;95761.47;1024311;28;20027;-60
2021/04/05 01:37:53;;;;;;;11.82;5.50;;;;;;;0.94;100.00;95775.44;1024371;28;20102;-61
2021/04/05 01:38:26;;;;;;;11.25;6.15;;;;;;;0.94;100.00;95775.44;1028185;28;20062;-60
2021/04/05 01:38:57;;;;;;;10.43;5.50;;;;;;;0.95;100.00;95771.88;1028260;28;20023;-61
2021/04/05 01:39:28;;;;;;;10.30;6.55;;;;;;;0.96;100.00;95764.88;1024265;28;20054;-62
2021/04/05 01:39:59;;;;;;;11.05;5.75;;;;;;;0.97;100.00;95769.16;1024302;28;20049;-60
2021/04/05 01:40:33;;;;;;;12.27;5.38;;;;;;;0.94;100.00;95770.22;1020193;29;20521;-61
2021/04/05 01:41:06;;;;;;;10.30;5.70;;;;;;;0.90;100.00;95759.16;1020408;29;20016;-62
2021/04/05 01:41:36;;;;;;;9.50;5.88;;;;;;;0.91;100.00;95765.25;1020308;29;20032;-60
2021/04/05 01:42:07;;;;;;;9.45;5.72;;;;;;;0.91;100.00;95768.69;1031493;28;20436;-61
2021/04/05 01:42:38;;;;;;;10.95;5.90;;;;;;;0.91;100.00;95765.25;1032102;28;20045;-60
2021/04/05 01:43:09;;;;;;;10.63;5.75;;;;;;;0.90;100.00;95760.97;1016301;29;20444;-62
2021/04/05 01:43:40;;;;;;;10.48;5.63;;;;;;;0.92;100.00;95759.06;1012173;29;20020;-61
2021/04/05 01:44:11;;;;;;;12.23;5.65;;;;;;;0.92;100.00;95753.81;1012513;29;20025;-60
2021/04/05 01:44:42;;;;;;;10.77;6.10;;;;;;;0.91;100.00;95750.38;1024250;28;20401;-62
2021/04/05 01:45:16;;;;;;;10.43;5.53;;;;;;;0.86;100.00;95754.31;1020259;29;20019;-60
2021/04/05 01:45:47;;;;;;;8.60;5.55;;;;;;;0.86;100.00;95760.38;1016444;29;20398;-60
2021/04/05 01:46:19;;;;;;;12.60;6.18;;;;;;;0.87;100.00;95750.75;1028264;28;20027;-60
2021/04/05 01:46:50;;;;;;;11.05;6.53;;;;;;;0.88;100.00;95748.00;1024264;28;20503;-60
2021/04/05 01:47:21;;;;;;;10.32;6.13;;;;;;;0.86;100.00;95755.16;1015858;29;20051;-60
2021/04/05 01:47:51;;;;;;;10.57;5.97;;;;;;;0.86;100.00;95751.72;1020127;29;20023;-60
2021/04/05 01:48:23;;;;;;;14.23;6.25;;;;;;;0.85;100.00;95753.47;1020310;29;20107;-60
2021/04/05 01:48:57;;;;;;;12.70;6.20;;;;;;;0.86;100.00;95747.31;1016421;29;20331;-60
2021/04/05 01:49:28;;;;;;;9.63;5.55;;;;;;;0.84;100.00;95746.59;1016251;29;20028;-60
2021/04/05 01:49:59;;;;;;;8.93;5.90;;;;;;;0.86;100.00;95747.31;1016277;29;20016;-60
2021/04/05 01:50:30;;;;;;;11.65;5.57;;;;;;;0.78;100.00;95728.78;1016409;29;20052;-60
2021/04/05 01:51:13;;;;;;;10.45;5.60;;;;;;;0.81;100.00;95746.84;1016399;29;20486;-61
2021/04/05 01:51:44;;;;;;;10.82;6.30;;;;;;;0.83;100.00;95737.09;1016382;29;20083;-62
2021/04/05 01:52:15;;;;;;;12.50;5.93;;;;;;;0.81;100.00;95739.00;1016321;29;20582;-59
2021/04/05 01:52:46;;;;;;;11.45;5.65;;;;;;;0.81;100.00;95739.00;1016315;29;20013;-60
2021/04/05 01:53:18;;;;;;;8.70;5.53;;;;;;;0.81;100.00;95736.38;1028025;28;20027;-62
2021/04/05 01:53:49;;;;;;;9.57;5.53;;;;;;;0.80;100.00;95734.75;1016161;29;20145;-60
2021/04/05 01:54:20;;;;;;;19.00;5.68;;;;;;;0.81;100.00;95736.38;1020321;29;20082;-60
2021/04/05 01:54:51;;;;;;;11.57;5.78;;;;;;;0.85;100.00;95735.16;1020179;29;20116;-61
2021/04/05 01:55:22;;;;;;;9.05;5.35;;;;;;;0.81;100.00;95731.16;1016198;29;20399;-62
2021/04/05 01:55:53;;;;;;;12.05;5.88;;;;;;;0.81;100.00;95733.75;1016324;29;20423;-60
2021/04/05 01:56:24;;;;;;;10.77;5.80;;;;;;;0.82;100.00;95735.44;1020303;28;20095;-61
2021/04/05 01:56:54;;;;;;;12.07;6.47;;;;;;;0.80;100.00;95734.75;1020267;28;20079;-60
2021/04/05 01:57:26;;;;;;;11.88;5.93;;;;;;;0.82;100.00;95730.22;1028152;28;20501;-60
2021/04/05 01:57:57;;;;;;;8.23;5.45;;;;;;;0.78;100.00;95733.19;1020308;28;20022;-60
2021/04/05 01:58:28;;;;;;;9.52;5.47;;;;;;;0.72;100.00;95732.72;1020239;29;20424;-61
2021/04/05 01:58:58;;;;;;;12.68;6.22;;;;;;;0.71;100.00;95730.22;1016360;29;20020;-61
2021/04/05 01:59:29;;;;;;;10.07;5.47;;;;;;;0.70;100.00;95732.00;1020200;29;20016;-60
2021/04/05 02:00:00;;;;;;;9.80;6.28;;;;;;;0.72;100.00;95726.66;1028169;28;20030;-62
2021/04/05 02:00:35;;;;;;;10.50;6.68;;;;;;;0.74;100.00;95724.75;1016314;29;20075;-59
2021/04/05 02:01:09;;;;;;;15.30;6.10;;;;;;;0.73;100.00;95729.16;1016337;29;20139;-62
2021/04/05 02:01:40;;;;;;;11.55;6.03;;;;;;;0.73;100.00;95728.31;1016251;29;20103;-60
2021/04/05 02:02:11;;;;;;;11.27;6.15;;;;;;;0.72;100.00;95727.47;1021491;29;20019;-61
2021/04/05 02:02:42;;;;;;;9.77;6.05;;;;;;;0.71;100.00;95717.16;1020226;29;20040;-60
2021/04/05 02:03:13;;;;;;;9.40;5.28;;;;;;;0.70;100.00;95728.56;1016133;29;20491;-62
2021/04/05 02:03:44;;;;;;;10.40;5.45;;;;;;;0.68;100.00;95727.84;1023854;29;20023;-60
2021/04/05 02:04:15;;;;;;;11.63;5.70;;;;;;;0.69;100.00;95732.13;1024239;29;20461;-60
2021/04/05 02:04:46;;;;;;;12.93;6.18;;;;;;;0.70;100.00;95723.34;1020190;29;20477;-60
2021/04/05 02:05:17;;;;;;;9.82;5.85;;;;;;;0.70;100.00;95720.72;1020249;29;20046;-62
2021/04/05 02:05:54;;;;;;;11.15;5.80;;;;;;;0.70;100.00;95724.16;1024031;28;20020;-60
2021/04/05 02:06:26;;;;;;;9.85;5.75;;;;;;;0.70;100.00;95721.56;1020262;29;20115;-62
2021/04/05 02:06:57;;;;;;;13.77;6.15;;;;;;;0.69;100.00;95719.06;1028124;28;20025;-61
2021/04/05 02:07:28;;;;;;;10.65;5.65;;;;;;;0.68;100.00;95722.59;1024142;28;20110;-63
2021/04/05 02:07:59;;;;;;;11.57;5.72;;;;;;;0.69;100.00;95726.91;1016147;29;20017;-61
2021/04/05 02:08:31;;;;;;;9.95;6.05;;;;;;;0.67;100.00;95716.56;1020191;29;20023;-60
2021/04/05 02:09:05;;;;;;;9.57;5.30;;;;;;;0.67;100.00;95718.34;1020161;29;20114;-61
2021/04/05 02:09:35;;;;;;;10.10;5.70;;;;;;;0.66;100.00;95717.53;1016289;29;20175;-61
2021/04/05 02:10:09;;;;;;;11.45;5.93;;;;;;;0.65;100.00;95717.66;1016215;29;20041;-61
2021/04/05 02:10:39;;;;;;;9.35;5.57;;;;;;;0.66;100.00;95721.91;1024188;29;20025;-61
2021/04/05 02:11:13;;;;;;;9.68;5.63;;;;;;;0.67;100.00;95721.78;1028210;28;20515;-61
2021/04/05 02:11:44;;;;;;;10.30;5.85;;;;;;;0.65;100.00;95721.09;1028275;28;20106;-61
2021/04/05 02:12:15;;;;;;;13.07;5.38;;;;;;;0.63;100.00;95712.53;1020076;29;20041;-61
2021/04/05 02:12:46;;;;;;;9.48;5.68;;;;;;;0.60;100.00;95710.16;1032101;28;20080;-60
2021/04/05 02:13:20;;;;;;;8.45;5.10;;;;;;;0.62;100.00;95713.47;1024226;28;20027;-60
2021/04/05 02:13:53;;;;;;;13.07;5.78;;;;;;;0.59;100.00;95715.50;1019989;29;20028;-60
2021/04/05 02:14:24;;;;;;;11.63;5.35;;;;;;;0.59;100.00;95710.28;1016212;29;20028;-60
2021/04/05 02:14:55;;;;;;;9.25;5.40;;;;;;;0.60;100.00;95712.78;1028177;28;20015;-61
2021/04/05 02:15:26;;;;;;;10.98;6.28;;;;;;;0.59;100.00;95712.88;1016246;29;20028;-60
2021/04/05 02:15:57;;;;;;;10.15;5.63;;;;;;;0.64;100.00;95718.59;1028149;28;20058;-61
2021/04/05 02:16:28;;;;;;;8.35;5.22;;;;;;;0.63;100.00;95714.31;1032044;28;20100;-60
2021/04/05 02:16:59;;;;;;;12.55;6.43;;;;;;;0.62;100.00;95708.25;1024204;28;20023;-60
2021/04/05 02:17:30;;;;;;;11.68;5.93;;;;;;;0.61;100.00;95703.16;1024109;29;20023;-60
2021/04/05 02:18:01;;;;;;;10.63;5.97;;;;;;;0.60;100.00;95706.72;1024211;29;20023;-60
2021/04/05 02:18:31;;;;;;;11.30;5.63;;;;;;;0.46;100.00;95686.91;1012328;29;20025;-61
2021/04/05 02:19:02;;;;;;;10.85;5.45;;;;;;;0.56;100.00;95709.56;1016253;29;20024;-59
2021/04/05 02:19:33;;;;;;;10.43;5.78;;;;;;;0.56;100.00;95704.34;1016376;29;20195;-61
2021/04/05 02:20:12;;;;;;;11.68;5.88;;;;;;;0.54;100.00;95706.25;1016251;29;20528;-61
2021/04/05 02:20:44;;;;;;;8.88;5.70;;;;;;;0.55;100.00;95702.66;1020101;29;20046;-61
2021/04/05 02:21:16;;;;;;;9.18;5.45;;;;;;;0.56;100.00;95706.97;1032205;28;20026;-60
2021/04/05 02:21:47;;;;;;;8.95;5.10;;;;;;;0.51;100.00;95705.66;1028098;28;20056;-60
2021/04/05 02:22:17;;;;;;;10.98;6.05;;;;;;;0.53;100.00;95711.59;1024062;29;20031;-61
2021/04/05 02:22:50;;;;;;;9.30;5.95;;;;;;;0.53;100.00;95709.81;1020067;29;20118;-61
2021/04/05 02:23:22;;;;;;;9.88;5.82;;;;;;;0.51;100.00;95709.09;1024008;28;20031;-60
2021/04/05 02:23:54;;;;;;;10.35;5.45;;;;;;;0.53;100.00;95712.41;1019948;29;20540;-61
2021/04/05 02:24:25;;;;;;;10.57;5.97;;;;;;;0.53;100.00;95711.59;1028075;28;20523;-62
2021/04/05 02:24:56;;;;;;;12.10;5.88;;;;;;;0.53;100.00;95714.22;1028062;28;20022;-61
2021/04/05 02:25:27;;;;;;;10.13;5.55;;;;;;;0.54;100.00;95713.25;1024087;29;20027;-60
2021/04/05 02:26:08;;;;;;;10.80;5.70;;;;;;;0.49;100.00;95718.03;1024103;29;20047;-61
2021/04/05 02:26:40;;;;;;;10.20;5.00;;;;;;;0.50;100.00;95706.59;1024024;29;20484;-61
2021/04/05 02:27:11;;;;;;;9.05;5.05;;;;;;;0.48;100.00;95704.09;1020156;28;20019;-59
2021/04/05 02:27:44;;;;;;;11.68;5.60;;;;;;;0.47;100.00;95712.91;1024142;29;20023;-61
2021/04/05 02:28:15;;;;;;;12.35;5.22;;;;;;;0.47;100.00;95706.84;1020119;29;20023;-60